sensor_id;sensor_type;location;lat;lon;timestamp;pressure;altitude;pressure_sealevel;temperature;humidity
4705;BME280;2366;51.332;6.610;2023-04-01T00:01:05;99176.84;;;13.59;75.69
4705;BME280;2366;51.332;6.610;2023-04-01T00:03:31;99159.56;;;13.63;75.16
4705;BME280;2366;51.332;6.610;2023-04-01T00:05:58;99174.03;;;13.60;75.03
4705;BME280;2366;51.332;6.610;2023-04-01T00:08:25;99169.56;;;13.33;75.53
4705;BME280;2366;51.332;6.610;2023-04-01T00:10:52;99172.31;;;13.41;75.75
4705;BME280;2366;51.332;6.610;2023-04-01T00:13:17;99179.31;;;13.42;75.82
4705;BME280;2366;51.332;6.610;2023-04-01T00:15:43;99167.72;;;13.33;76.25
4705;BME280;2366;51.332;6.610;2023-04-01T00:18:09;99167.59;;;13.35;75.90
4705;BME280;2366;51.332;6.610;2023-04-01T00:20:34;99167.91;;;13.32;76.44
4705;BME280;2366;51.332;6.610;2023-04-01T00:22:59;99170.28;;;13.25;77.01
4705;BME280;2366;51.332;6.610;2023-04-01T00:25:25;99166.53;;;13.18;77.14
4705;BME280;2366;51.332;6.610;2023-04-01T00:27:51;99167.22;;;13.20;77.39
4705;BME280;2366;51.332;6.610;2023-04-01T00:30:16;99171.81;;;13.28;77.51
4705;BME280;2366;51.332;6.610;2023-04-01T00:32:42;99159.47;;;13.27;77.55
4705;BME280;2366;51.332;6.610;2023-04-01T00:35:08;99157.94;;;13.24;77.37
4705;BME280;2366;51.332;6.610;2023-04-01T00:37:37;99164.88;;;13.17;77.26
4705;BME280;2366;51.332;6.610;2023-04-01T00:40:07;99159.78;;;13.24;77.33
4705;BME280;2366;51.332;6.610;2023-04-01T00:42:32;99159.53;;;13.17;77.38
4705;BME280;2366;51.332;6.610;2023-04-01T00:44:58;99164.31;;;13.13;78.10
4705;BME280;2366;51.332;6.610;2023-04-01T00:47:25;99170.63;;;13.12;78.01
4705;BME280;2366;51.332;6.610;2023-04-01T00:49:53;99159.47;;;13.27;77.69
4705;BME280;2366;51.332;6.610;2023-04-01T00:52:22;99157.69;;;13.27;77.38
4705;BME280;2366;51.332;6.610;2023-04-01T00:54:51;99158.91;;;13.33;77.14
4705;BME280;2366;51.332;6.610;2023-04-01T00:59:52;99156.81;;;13.27;77.08
4705;BME280;2366;51.332;6.610;2023-04-01T01:02:19;99152.63;;;13.24;76.74
4705;BME280;2366;51.332;6.610;2023-04-01T01:04:45;99162.75;;;13.21;77.08
4705;BME280;2366;51.332;6.610;2023-04-01T01:07:24;99156.88;;;13.17;77.06
4705;BME280;2366;51.332;6.610;2023-04-01T01:10:08;99153.91;;;13.20;76.94
4705;BME280;2366;51.332;6.610;2023-04-01T01:15:12;99147.16;;;13.26;76.84
4705;BME280;2366;51.332;6.610;2023-04-01T01:18:12;99150.56;;;13.18;76.93
4705;BME280;2366;51.332;6.610;2023-04-01T01:21:02;99153.47;;;13.25;76.86
4705;BME280;2366;51.332;6.610;2023-04-01T01:29:03;99142.94;;;13.33;76.18
4705;BME280;2366;51.332;6.610;2023-04-01T01:31:37;99136.94;;;13.31;76.14
4705;BME280;2366;51.332;6.610;2023-04-01T01:34:21;99140.28;;;13.33;75.69
4705;BME280;2366;51.332;6.610;2023-04-01T01:36:53;99153.47;;;13.25;75.69
4705;BME280;2366;51.332;6.610;2023-04-01T01:39:23;99147.28;;;13.34;75.78
4705;BME280;2366;51.332;6.610;2023-04-01T01:41:54;99143.81;;;13.24;75.56
4705;BME280;2366;51.332;6.610;2023-04-01T01:44:21;99148.34;;;13.13;75.45
4705;BME280;2366;51.332;6.610;2023-04-01T01:46:47;99149.44;;;13.21;75.85
4705;BME280;2366;51.332;6.610;2023-04-01T01:49:14;99147.91;;;13.18;76.12
4705;BME280;2366;51.332;6.610;2023-04-01T01:51:40;99141.00;;;13.25;75.94
4705;BME280;2366;51.332;6.610;2023-04-01T01:54:12;99145.34;;;13.26;75.68
4705;BME280;2366;51.332;6.610;2023-04-01T01:56:38;99145.94;;;13.20;76.12
4705;BME280;2366;51.332;6.610;2023-04-01T01:59:08;99141.06;;;13.15;76.03
4705;BME280;2366;51.332;6.610;2023-04-01T02:01:39;99139.66;;;13.11;76.72
4705;BME280;2366;51.332;6.610;2023-04-01T02:04:07;99144.03;;;13.12;76.22
4705;BME280;2366;51.332;6.610;2023-04-01T02:06:37;99154.22;;;13.17;76.14
4705;BME280;2366;51.332;6.610;2023-04-01T02:09:06;99146.94;;;13.19;76.62
4705;BME280;2366;51.332;6.610;2023-04-01T02:14:49;99148.31;;;13.23;75.53
4705;BME280;2366;51.332;6.610;2023-04-01T02:17:21;99153.22;;;13.18;76.25
4705;BME280;2366;51.332;6.610;2023-04-01T02:19:53;99149.44;;;13.21;76.53
4705;BME280;2366;51.332;6.610;2023-04-01T02:22:26;99154.47;;;13.24;76.61
4705;BME280;2366;51.332;6.610;2023-04-01T02:24:57;99147.53;;;13.03;77.11
4705;BME280;2366;51.332;6.610;2023-04-01T02:27:23;99146.44;;;13.06;77.25
4705;BME280;2366;51.332;6.610;2023-04-01T02:29:50;99155.63;;;13.11;77.72
4705;BME280;2366;51.332;6.610;2023-04-01T02:32:18;99154.66;;;13.12;77.67
4705;BME280;2366;51.332;6.610;2023-04-01T02:34:44;99157.16;;;13.14;77.58
4705;BME280;2366;51.332;6.610;2023-04-01T02:37:11;99154.47;;;13.24;77.38
4705;BME280;2366;51.332;6.610;2023-04-01T02:39:37;99156.13;;;13.25;77.50
4705;BME280;2366;51.332;6.610;2023-04-01T02:42:03;99153.31;;;13.26;77.23
4705;BME280;2366;51.332;6.610;2023-04-01T02:44:28;99172.25;;;13.23;77.09
4705;BME280;2366;51.332;6.610;2023-04-01T02:46:53;99164.28;;;13.23;77.21
4705;BME280;2366;51.332;6.610;2023-04-01T02:49:19;99162.75;;;13.21;77.07
4705;BME280;2366;51.332;6.610;2023-04-01T02:51:44;99159.78;;;13.24;77.40
4705;BME280;2366;51.332;6.610;2023-04-01T02:54:10;99163.72;;;13.29;77.04
4705;BME280;2366;51.332;6.610;2023-04-01T02:56:35;99170.13;;;13.27;77.29
4705;BME280;2366;51.332;6.610;2023-04-01T02:59:00;99174.75;;;13.25;77.21
4705;BME280;2366;51.332;6.610;2023-04-01T03:01:26;99171.56;;;13.21;77.26
4705;BME280;2366;51.332;6.610;2023-04-01T03:03:51;99175.19;;;13.20;77.26
4705;BME280;2366;51.332;6.610;2023-04-01T03:06:17;99170.19;;;13.17;77.65
4705;BME280;2366;51.332;6.610;2023-04-01T03:08:42;99178.03;;;13.19;77.97
4705;BME280;2366;51.332;6.610;2023-04-01T03:11:09;99182.66;;;13.17;77.56
4705;BME280;2366;51.332;6.610;2023-04-01T03:13:35;99178.72;;;13.21;77.76
4705;BME280;2366;51.332;6.610;2023-04-01T03:16:00;99182.34;;;13.20;77.20
4705;BME280;2366;51.332;6.610;2023-04-01T03:18:26;99190.63;;;13.17;78.00
4705;BME280;2366;51.332;6.610;2023-04-01T03:20:51;99185.56;;;13.23;77.75
4705;BME280;2366;51.332;6.610;2023-04-01T03:23:17;99193.56;;;13.13;78.30
4705;BME280;2366;51.332;6.610;2023-04-01T03:25:44;99196.47;;;13.20;77.89
4705;BME280;2366;51.332;6.610;2023-04-01T03:28:10;99191.03;;;13.22;77.77
4705;BME280;2366;51.332;6.610;2023-04-01T03:30:35;99190.88;;;13.23;77.70
4705;BME280;2366;51.332;6.610;2023-04-01T03:33:01;99195.06;;;13.26;77.91
4705;BME280;2366;51.332;6.610;2023-04-01T03:35:27;99192.53;;;13.34;77.65
4705;BME280;2366;51.332;6.610;2023-04-01T03:37:53;99191.16;;;13.30;76.87
4705;BME280;2366;51.332;6.610;2023-04-01T03:40:20;99191.16;;;13.30;77.67
4705;BME280;2366;51.332;6.610;2023-04-01T03:42:45;99202.31;;;13.33;77.71
4705;BME280;2366;51.332;6.610;2023-04-01T03:45:11;99194.19;;;13.35;77.56
4705;BME280;2366;51.332;6.610;2023-04-01T03:47:40;99198.16;;;13.31;77.82
4705;BME280;2366;51.332;6.610;2023-04-01T03:50:06;99194.91;;;13.37;77.33
4705;BME280;2366;51.332;6.610;2023-04-01T03:52:32;99195.03;;;13.35;77.60
4705;BME280;2366;51.332;6.610;2023-04-01T03:54:57;99199.16;;;13.30;77.37
4705;BME280;2366;51.332;6.610;2023-04-01T03:57:23;99209.06;;;13.28;77.44
4705;BME280;2366;51.332;6.610;2023-04-01T03:59:48;99205.44;;;13.29;77.50
4705;BME280;2366;51.332;6.610;2023-04-01T04:02:14;99202.91;;;13.27;77.38
4705;BME280;2366;51.332;6.610;2023-04-01T04:04:39;99198.00;;;13.32;77.31
4705;BME280;2366;51.332;6.610;2023-04-01T04:07:06;99203.31;;;13.32;76.75
4705;BME280;2366;51.332;6.610;2023-04-01T04:09:31;99200.81;;;13.31;77.01
4705;BME280;2366;51.332;6.610;2023-04-01T04:11:57;99201.22;;;13.36;77.17
4705;BME280;2366;51.332;6.610;2023-04-01T04:14:23;99205.84;;;13.34;77.09
4705;BME280;2366;51.332;6.610;2023-04-01T04:16:48;99208.78;;;13.31;77.45
4705;BME280;2366;51.332;6.610;2023-04-01T04:19:14;99211.31;;;13.32;76.99
4705;BME280;2366;51.332;6.610;2023-04-01T04:21:41;99207.66;;;13.33;77.28
4705;BME280;2366;51.332;6.610;2023-04-01T04:24:07;99215.75;;;13.42;76.87
4705;BME280;2366;51.332;6.610;2023-04-01T04:26:32;99213.91;;;13.42;76.91
4705;BME280;2366;51.332;6.610;2023-04-01T04:28:58;99221.88;;;13.42;76.84
4705;BME280;2366;51.332;6.610;2023-04-01T04:31:24;99221.38;;;13.39;76.84
4705;BME280;2366;51.332;6.610;2023-04-01T04:33:51;99219.09;;;13.44;76.56
4705;BME280;2366;51.332;6.610;2023-04-01T04:36:17;99223.34;;;13.37;76.94
4705;BME280;2366;51.332;6.610;2023-04-01T04:38:43;99223.47;;;13.35;76.81
4705;BME280;2366;51.332;6.610;2023-04-01T04:41:12;99221.66;;;13.35;77.12
4705;BME280;2366;51.332;6.610;2023-04-01T04:43:39;99220.25;;;13.31;77.19
4705;BME280;2366;51.332;6.610;2023-04-01T04:46:09;99224.75;;;13.31;77.61
4705;BME280;2366;51.332;6.610;2023-04-01T04:48:35;99231.59;;;13.33;77.24
4705;BME280;2366;51.332;6.610;2023-04-01T04:51:01;99235.56;;;13.29;77.65
4705;BME280;2366;51.332;6.610;2023-04-01T04:53:26;99228.66;;;13.27;77.78
4705;BME280;2366;51.332;6.610;2023-04-01T04:55:52;99227.84;;;13.26;77.95
4705;BME280;2366;51.332;6.610;2023-04-01T04:58:18;99233.44;;;13.33;78.04
4705;BME280;2366;51.332;6.610;2023-04-01T05:00:44;99235.69;;;13.28;78.01
4705;BME280;2366;51.332;6.610;2023-04-01T05:03:10;99242.97;;;13.26;77.97
4705;BME280;2366;51.332;6.610;2023-04-01T05:05:36;99237.09;;;13.32;78.03
4705;BME280;2366;51.332;6.610;2023-04-01T05:08:02;99235.13;;;13.34;77.65
4705;BME280;2366;51.332;6.610;2023-04-01T05:10:27;99235.25;;;13.32;78.07
4705;BME280;2366;51.332;6.610;2023-04-01T05:12:53;99240.16;;;13.27;77.92
4705;BME280;2366;51.332;6.610;2023-04-01T05:15:18;99241.72;;;13.20;78.32
4705;BME280;2366;51.332;6.610;2023-04-01T05:17:43;99247.19;;;13.28;78.32
4705;BME280;2366;51.332;6.610;2023-04-01T05:20:11;99251.38;;;13.31;78.07
4705;BME280;2366;51.332;6.610;2023-04-01T05:22:37;99250.53;;;13.30;77.85
4705;BME280;2366;51.332;6.610;2023-04-01T05:25:02;99259.78;;;13.36;77.84
4705;BME280;2366;51.332;6.610;2023-04-01T05:27:28;99256.94;;;13.38;77.79
4705;BME280;2366;51.332;6.610;2023-04-01T05:29:53;99255.03;;;13.30;78.07
4705;BME280;2366;51.332;6.610;2023-04-01T05:32:18;99256.56;;;13.32;78.03
4705;BME280;2366;51.332;6.610;2023-04-01T05:34:44;99256.69;;;13.31;77.93
4705;BME280;2366;51.332;6.610;2023-04-01T05:37:09;99261.75;;;13.34;77.64
4705;BME280;2366;51.332;6.610;2023-04-01T05:39:39;99261.75;;;13.34;77.75
4705;BME280;2366;51.332;6.610;2023-04-01T05:42:07;99259.22;;;13.32;77.88
4705;BME280;2366;51.332;6.610;2023-04-01T05:44:34;99261.19;;;13.30;78.14
4705;BME280;2366;51.332;6.610;2023-04-01T05:46:59;99261.88;;;13.32;78.09
4705;BME280;2366;51.332;6.610;2023-04-01T05:49:24;99270.13;;;13.39;77.96
4705;BME280;2366;51.332;6.610;2023-04-01T05:51:50;99266.91;;;13.35;78.11
4705;BME280;2366;51.332;6.610;2023-04-01T05:54:16;99278.78;;;13.41;78.12
4705;BME280;2366;51.332;6.610;2023-04-01T05:56:42;99279.63;;;13.42;77.94
4705;BME280;2366;51.332;6.610;2023-04-01T05:59:10;99272.09;;;13.37;77.52
4705;BME280;2366;51.332;6.610;2023-04-01T06:01:35;99283.13;;;13.42;78.24
4705;BME280;2366;51.332;6.610;2023-04-01T06:04:01;99283.97;;;13.43;78.25
4705;BME280;2366;51.332;6.610;2023-04-01T06:06:28;99282.00;;;13.45;77.99
4705;BME280;2366;51.332;6.610;2023-04-01T06:08:56;99274.03;;;13.45;77.94
4705;BME280;2366;51.332;6.610;2023-04-01T06:11:44;99283.22;;;13.50;77.77
4705;BME280;2366;51.332;6.610;2023-04-01T06:14:23;99283.22;;;13.50;77.73
4705;BME280;2366;51.332;6.610;2023-04-01T06:22:56;99286.06;;;13.49;77.66
4705;BME280;2366;51.332;6.610;2023-04-01T06:41:34;99302.91;;;13.67;77.60
4705;BME280;2366;51.332;6.610;2023-04-01T06:44:13;99300.25;;;13.67;77.40
4705;BME280;2366;51.332;6.610;2023-04-01T06:47:10;99306.28;;;13.60;77.21
4705;BME280;2366;51.332;6.610;2023-04-01T06:52:27;99314.00;;;13.63;77.33
4705;BME280;2366;51.332;6.610;2023-04-01T06:55:02;99312.63;;;13.59;77.02
4705;BME280;2366;51.332;6.610;2023-04-01T06:57:57;99313.00;;;13.64;77.38
4705;BME280;2366;51.332;6.610;2023-04-01T07:00:39;99329.16;;;13.62;77.14
4705;BME280;2366;51.332;6.610;2023-04-01T07:03:34;99320.84;;;13.65;77.42
4705;BME280;2366;51.332;6.610;2023-04-01T07:06:04;99322.69;;;13.65;77.34
4705;BME280;2366;51.332;6.610;2023-04-01T07:08:33;99329.97;;;13.63;77.34
4705;BME280;2366;51.332;6.610;2023-04-01T07:11:03;99327.13;;;13.74;77.33
4705;BME280;2366;51.332;6.610;2023-04-01T07:13:34;99331.72;;;13.82;77.18
4705;BME280;2366;51.332;6.610;2023-04-01T07:18:48;99335.50;;;13.79;76.69
4705;BME280;2366;51.332;6.610;2023-04-01T07:21:38;99341.81;;;13.78;76.06
4705;BME280;2366;51.332;6.610;2023-04-01T07:24:33;99336.94;;;13.73;76.08
4705;BME280;2366;51.332;6.610;2023-04-01T07:27:03;99349.13;;;13.76;76.37
4705;BME280;2366;51.332;6.610;2023-04-01T07:29:30;99345.03;;;13.82;76.59
4705;BME280;2366;51.332;6.610;2023-04-01T07:35:22;99359.00;;;13.93;75.97
4705;BME280;2366;51.332;6.610;2023-04-01T07:41:09;99363.16;;;14.06;75.77
4705;BME280;2366;51.332;6.610;2023-04-01T07:48:49;99371.38;;;14.12;75.56
4705;BME280;2366;51.332;6.610;2023-04-01T07:51:32;99382.63;;;14.06;75.36
4705;BME280;2366;51.332;6.610;2023-04-01T07:54:22;99383.56;;;14.15;75.30
4705;BME280;2366;51.332;6.610;2023-04-01T07:56:55;99390.28;;;14.19;75.18
4705;BME280;2366;51.332;6.610;2023-04-01T07:59:39;99390.66;;;14.24;75.13
4705;BME280;2366;51.332;6.610;2023-04-01T08:05:17;99391.81;;;14.39;74.39
4705;BME280;2366;51.332;6.610;2023-04-01T08:07:57;99406.97;;;14.39;74.46
4705;BME280;2366;51.332;6.610;2023-04-01T08:13:36;99408.72;;;14.30;73.75
4705;BME280;2366;51.332;6.610;2023-04-01T08:16:12;99414.06;;;14.30;74.35
4705;BME280;2366;51.332;6.610;2023-04-01T08:21:35;99414.81;;;14.23;73.27
4705;BME280;2366;51.332;6.610;2023-04-01T08:24:11;99421.13;;;14.22;74.58
4705;BME280;2366;51.332;6.610;2023-04-01T08:26:46;99422.03;;;14.30;74.38
4705;BME280;2366;51.332;6.610;2023-04-01T08:32:01;99433.00;;;14.55;74.08
4705;BME280;2366;51.332;6.610;2023-04-01T08:34:38;99438.34;;;14.55;73.51
4705;BME280;2366;51.332;6.610;2023-04-01T08:37:08;99446.59;;;14.62;73.79
4705;BME280;2366;51.332;6.610;2023-04-01T08:39:42;99438.44;;;14.63;73.79
4705;BME280;2366;51.332;6.610;2023-04-01T08:45:26;99446.16;;;14.66;73.08
4705;BME280;2366;51.332;6.610;2023-04-01T08:56:42;99452.41;;;14.93;72.91
4705;BME280;2366;51.332;6.610;2023-04-01T09:13:27;99466.69;;;15.64;69.33
4705;BME280;2366;51.332;6.610;2023-04-01T09:16:11;99475.03;;;15.43;70.21
4705;BME280;2366;51.332;6.610;2023-04-01T09:24:19;99481.28;;;15.15;70.60
4705;BME280;2366;51.332;6.610;2023-04-01T09:26:51;99487.31;;;15.17;70.67
4705;BME280;2366;51.332;6.610;2023-04-01T09:32:33;99490.66;;;15.55;70.16
4705;BME280;2366;51.332;6.610;2023-04-01T09:40:20;99493.44;;;15.90;68.41
4705;BME280;2366;51.332;6.610;2023-04-01T09:45:36;99506.19;;;15.78;68.84
4705;BME280;2366;51.332;6.610;2023-04-01T09:48:49;99502.84;;;15.76;68.58
4705;BME280;2366;51.332;6.610;2023-04-01T09:54:03;99515.25;;;15.67;68.97
4705;BME280;2366;51.332;6.610;2023-04-01T10:02:19;99522.84;;;15.72;68.83
4705;BME280;2366;51.332;6.610;2023-04-01T10:19:11;99547.19;;;15.15;70.87
4705;BME280;2366;51.332;6.610;2023-04-01T10:27:33;99546.72;;;15.02;71.84
4705;BME280;2366;51.332;6.610;2023-04-01T10:33:10;99554.25;;;14.88;72.11
4705;BME280;2366;51.332;6.610;2023-04-01T10:36:00;99559.59;;;14.88;72.41
4705;BME280;2366;51.332;6.610;2023-04-01T10:55:48;99571.69;;;15.64;71.42
4705;BME280;2366;51.332;6.610;2023-04-01T10:58:53;99577.56;;;15.86;71.71
4705;BME280;2366;51.332;6.610;2023-04-01T11:01:39;99570.03;;;15.81;70.56
4705;BME280;2366;51.332;6.610;2023-04-01T11:09:44;99577.13;;;15.72;71.11
4705;BME280;2366;51.332;6.610;2023-04-01T11:15:07;99591.09;;;16.10;70.59
4705;BME280;2366;51.332;6.610;2023-04-01T11:23:50;99602.44;;;16.30;69.90
4705;BME280;2366;51.332;6.610;2023-04-01T11:37:50;99622.91;;;15.59;70.62
4705;BME280;2366;51.332;6.610;2023-04-01T11:40:54;99623.88;;;15.40;71.24
4705;BME280;2366;51.332;6.610;2023-04-01T11:54:32;99631.41;;;15.73;71.30
4705;BME280;2366;51.332;6.610;2023-04-01T12:00:35;99648.47;;;16.42;70.44
4705;BME280;2366;51.332;6.610;2023-04-01T12:08:33;99652.25;;;16.83;67.96
4705;BME280;2366;51.332;6.610;2023-04-01T12:21:50;99667.56;;;16.47;67.35
4705;BME280;2366;51.332;6.610;2023-04-01T12:24:45;99674.66;;;16.12;67.66
4705;BME280;2366;51.332;6.610;2023-04-01T12:35:19;99685.06;;;15.97;69.61
4705;BME280;2366;51.332;6.610;2023-04-01T12:41:05;99694.56;;;16.36;69.10
4705;BME280;2366;51.332;6.610;2023-04-01T12:49:33;99695.63;;;16.69;67.64
4705;BME280;2366;51.332;6.610;2023-04-01T12:55:17;99712.75;;;16.32;68.00
4705;BME280;2366;51.332;6.610;2023-04-01T13:08:41;99719.25;;;15.94;69.07
4705;BME280;2366;51.332;6.610;2023-04-01T13:13:47;99729.78;;;16.13;68.96
4705;BME280;2366;51.332;6.610;2023-04-01T13:17:11;99728.13;;;16.12;68.82
4705;BME280;2366;51.332;6.610;2023-04-01T13:19:17;99733.69;;;16.19;68.16
4705;BME280;2366;51.332;6.610;2023-04-01T13:24:40;99736.44;;;16.45;68.29
4705;BME280;2366;51.332;6.610;2023-04-01T13:27:17;99740.63;;;16.48;67.56
4705;BME280;2366;51.332;6.610;2023-04-01T13:30:02;99737.03;;;16.57;67.21
4705;BME280;2366;51.332;6.610;2023-04-01T13:35:30;99748.97;;;16.45;67.42
4705;BME280;2366;51.332;6.610;2023-04-01T13:51:57;99758.47;;;16.83;65.83
4705;BME280;2366;51.332;6.610;2023-04-01T13:57:43;99757.31;;;16.86;66.19
4705;BME280;2366;51.332;6.610;2023-04-01T14:03:13;99761.16;;;16.83;65.86
4705;BME280;2366;51.332;6.610;2023-04-01T14:05:53;99768.31;;;16.82;66.08
4705;BME280;2366;51.332;6.610;2023-04-01T14:08:30;99772.91;;;16.46;66.44
4705;BME280;2366;51.332;6.610;2023-04-01T14:22:28;99788.13;;;15.82;68.46
4705;BME280;2366;51.332;6.610;2023-04-01T14:27:42;99786.84;;;15.86;68.73
4705;BME280;2366;51.332;6.610;2023-04-01T14:30:32;99800.09;;;15.78;68.68
4705;BME280;2366;51.332;6.610;2023-04-01T14:41:30;99806.75;;;15.74;68.62
4705;BME280;2366;51.332;6.610;2023-04-01T14:44:24;99805.75;;;15.65;68.83
4705;BME280;2366;51.332;6.610;2023-04-01T14:50:18;99816.72;;;15.72;69.48
4705;BME280;2366;51.332;6.610;2023-04-01T14:53:11;99826.00;;;15.68;69.50
4705;BME280;2366;51.332;6.610;2023-04-01T14:58:12;99831.66;;;15.74;69.71
4705;BME280;2366;51.332;6.610;2023-04-01T15:01:00;99831.03;;;15.80;69.39
4705;BME280;2366;51.332;6.610;2023-04-01T15:03:39;99829.06;;;15.82;69.84
4705;BME280;2366;51.332;6.610;2023-04-01T15:06:32;99838.22;;;15.80;69.70
4705;BME280;2366;51.332;6.610;2023-04-01T15:20:21;99855.31;;;15.59;70.15
4705;BME280;2366;51.332;6.610;2023-04-01T15:23:01;99853.47;;;15.60;70.62
4705;BME280;2366;51.332;6.610;2023-04-01T15:36:39;99872.53;;;15.28;71.05
4705;BME280;2366;51.332;6.610;2023-04-01T15:41:43;99874.06;;;15.40;71.22
4705;BME280;2366;51.332;6.610;2023-04-01T15:44:54;99880.44;;;15.29;71.38
4705;BME280;2366;51.332;6.610;2023-04-01T15:49:56;99885.16;;;15.45;71.41
4705;BME280;2366;51.332;6.610;2023-04-01T15:52:33;99888.06;;;15.52;71.56
4705;BME280;2366;51.332;6.610;2023-04-01T16:10:09;99908.00;;;15.10;72.46
4705;BME280;2366;51.332;6.610;2023-04-01T16:13:04;99916.28;;;15.07;72.63
4705;BME280;2366;51.332;6.610;2023-04-01T16:18:25;99918.66;;;15.10;72.90
4705;BME280;2366;51.332;6.610;2023-04-01T16:23:40;99920.78;;;15.16;72.62
4705;BME280;2366;51.332;6.610;2023-04-01T16:26:15;99929.34;;;15.10;72.49
4705;BME280;2366;51.332;6.610;2023-04-01T16:28:57;99927.94;;;15.16;72.78
4705;BME280;2366;51.332;6.610;2023-04-01T16:31:46;99928.94;;;15.05;73.11
4705;BME280;2366;51.332;6.610;2023-04-01T16:34:20;99935.66;;;15.09;72.85
4705;BME280;2366;51.332;6.610;2023-04-01T16:36:54;99936.34;;;15.11;72.74
4705;BME280;2366;51.332;6.610;2023-04-01T16:39:49;99942.41;;;15.13;72.71
4705;BME280;2366;51.332;6.610;2023-04-01T16:42:25;99951.09;;;15.15;72.70
4705;BME280;2366;51.332;6.610;2023-04-01T16:47:52;99953.34;;;15.20;72.68
4705;BME280;2366;51.332;6.610;2023-04-01T16:50:27;99959.38;;;15.22;72.66
4705;BME280;2366;51.332;6.610;2023-04-01T16:52:59;99969.22;;;15.22;72.73
4705;BME280;2366;51.332;6.610;2023-04-01T16:55:50;99967.28;;;15.14;72.58
4705;BME280;2366;51.332;6.610;2023-04-01T17:01:29;99973.88;;;15.10;72.96
4705;BME280;2366;51.332;6.610;2023-04-01T17:04:04;99976.69;;;15.08;72.82
4705;BME280;2366;51.332;6.610;2023-04-01T17:06:51;99982.72;;;15.00;73.15
4705;BME280;2366;51.332;6.610;2023-04-01T17:15:30;99995.06;;;14.92;73.10
4705;BME280;2366;51.332;6.610;2023-04-01T17:21:07;100001.81;;;14.86;73.30
4705;BME280;2366;51.332;6.610;2023-04-01T17:23:41;100005.63;;;14.84;73.53
4705;BME280;2366;51.332;6.610;2023-04-01T17:37:33;100022.00;;;14.69;73.62
4705;BME280;2366;51.332;6.610;2023-04-01T17:45:40;100037.13;;;14.59;74.33
4705;BME280;2366;51.332;6.610;2023-04-01T17:51:17;100046.38;;;14.55;74.59
4705;BME280;2366;51.332;6.610;2023-04-01T18:04:57;100061.81;;;14.51;74.78
4705;BME280;2366;51.332;6.610;2023-04-01T18:18:44;100080.59;;;14.50;74.46
4705;BME280;2366;51.332;6.610;2023-04-01T18:21:35;100083.09;;;14.42;75.21
4705;BME280;2366;51.332;6.610;2023-04-01T18:24:24;100090.97;;;14.43;75.26
4705;BME280;2366;51.332;6.610;2023-04-01T18:27:15;100097.13;;;14.44;75.45
4705;BME280;2366;51.332;6.610;2023-04-01T18:29:48;100100.50;;;14.46;75.46
4705;BME280;2366;51.332;6.610;2023-04-01T18:35:24;100115.09;;;14.42;75.12
4705;BME280;2366;51.332;6.610;2023-04-01T18:38:11;100119.59;;;14.41;75.27
4705;BME280;2366;51.332;6.610;2023-04-01T18:40:50;100116.47;;;14.36;75.21
4705;BME280;2366;51.332;6.610;2023-04-01T18:43:27;100125.03;;;14.39;75.59
4705;BME280;2366;51.332;6.610;2023-04-01T18:46:00;100122.38;;;14.39;75.53
4705;BME280;2366;51.332;6.610;2023-04-01T18:51:46;100134.75;;;14.41;75.30
4705;BME280;2366;51.332;6.610;2023-04-01T18:54:19;100129.94;;;14.34;75.20
4705;BME280;2366;51.332;6.610;2023-04-01T18:56:48;100134.56;;;14.32;75.40
4705;BME280;2366;51.332;6.610;2023-04-01T19:04:33;100142.13;;;14.27;75.52
4705;BME280;2366;51.332;6.610;2023-04-01T19:09:52;100142.34;;;14.24;75.39
4705;BME280;2366;51.332;6.610;2023-04-01T19:21:21;100167.94;;;14.06;75.76
4705;BME280;2366;51.332;6.610;2023-04-01T19:28:56;100176.03;;;14.04;75.62
4705;BME280;2366;51.332;6.610;2023-04-01T19:32:01;100183.66;;;14.09;75.64
4705;BME280;2366;51.332;6.610;2023-04-01T19:34:49;100176.38;;;14.11;75.92
4705;BME280;2366;51.332;6.610;2023-04-01T19:56:19;100207.03;;;13.84;76.46
4705;BME280;2366;51.332;6.610;2023-04-01T19:59:11;100222.72;;;13.66;77.97
4705;BME280;2366;51.332;6.610;2023-04-01T20:01:50;100228.91;;;13.55;78.79
4705;BME280;2366;51.332;6.610;2023-04-01T20:14:57;100243.31;;;12.97;81.65
4705;BME280;2366;51.332;6.610;2023-04-01T20:17:30;100255.06;;;13.05;82.19
4705;BME280;2366;51.332;6.610;2023-04-01T20:20:19;100260.63;;;12.91;81.36
4705;BME280;2366;51.332;6.610;2023-04-01T20:25:24;100264.50;;;12.98;82.00
4705;BME280;2366;51.332;6.610;2023-04-01T20:27:55;100273.22;;;12.89;82.28
4705;BME280;2366;51.332;6.610;2023-04-01T20:33:21;100292.50;;;12.68;82.62
4705;BME280;2366;51.332;6.610;2023-04-01T20:41:25;100305.59;;;12.83;81.60
4705;BME280;2366;51.332;6.610;2023-04-01T20:43:58;100293.13;;;12.83;81.90
4705;BME280;2366;51.332;6.610;2023-04-01T20:46:48;100310.09;;;12.82;81.59
4705;BME280;2366;51.332;6.610;2023-04-01T20:49:34;100322.50;;;12.70;80.88
4705;BME280;2366;51.332;6.610;2023-04-01T20:55:15;100332.91;;;12.73;81.12
4705;BME280;2366;51.332;6.610;2023-04-01T20:57:55;100342.34;;;12.78;81.06
4705;BME280;2366;51.332;6.610;2023-04-01T21:03:26;100346.69;;;12.79;80.87
4705;BME280;2366;51.332;6.610;2023-04-01T21:06:12;100353.50;;;12.83;80.10
4705;BME280;2366;51.332;6.610;2023-04-01T21:13:54;100368.97;;;12.78;80.16
4705;BME280;2366;51.332;6.610;2023-04-01T21:16:33;100389.22;;;12.67;79.82
4705;BME280;2366;51.332;6.610;2023-04-01T21:35:23;100422.72;;;12.46;78.35
4705;BME280;2366;51.332;6.610;2023-04-01T21:46:29;100445.41;;;12.15;78.92
4705;BME280;2366;51.332;6.610;2023-04-01T21:55:05;100453.72;;;11.97;80.00
4705;BME280;2366;51.332;6.610;2023-04-01T22:00:32;100471.66;;;11.68;80.45
4705;BME280;2366;51.332;6.610;2023-04-01T22:16:20;100517.75;;;11.41;80.06
4705;BME280;2366;51.332;6.610;2023-04-01T22:19:10;100517.03;;;11.52;80.47
4705;BME280;2366;51.332;6.610;2023-04-01T22:21:46;100522.81;;;11.31;81.37
4705;BME280;2366;51.332;6.610;2023-04-01T22:27:38;100535.47;;;11.28;81.37
4705;BME280;2366;51.332;6.610;2023-04-01T22:30:13;100536.28;;;11.16;84.56
4705;BME280;2366;51.332;6.610;2023-04-01T22:32:42;100546.75;;;11.04;91.55
4705;BME280;2366;51.332;6.610;2023-04-01T22:40:25;100556.28;;;10.53;95.37
4705;BME280;2366;51.332;6.610;2023-04-01T22:42:57;100560.22;;;10.60;95.76
4705;BME280;2366;51.332;6.610;2023-04-01T22:45:42;100556.28;;;10.38;95.49
4705;BME280;2366;51.332;6.610;2023-04-01T22:53:42;100581.53;;;10.15;97.08
4705;BME280;2366;51.332;6.610;2023-04-01T22:56:23;100590.41;;;10.14;96.47
4705;BME280;2366;51.332;6.610;2023-04-01T22:59:00;100597.44;;;10.30;96.27